Saint Benedict, Oregon
Current Conditions -  °F | °C
As of 2:01 PM on Thursday 23 Oct 2014 (Local Time) from KUAO Reporting Station
Overcast Overcast  
Wind Chill: 56°   Ceiling: 3100
Heat Index: 56°   Visibility: 10mi
Dew Point: 50°   Wind: 10mph
Humidity: 80%   Direction: 250°WSW
Pressure: 29.92"   Gusts: 16mph
Location:  45.05°N, 122.76°W
Report Text: KUAO 232101Z AUTO 25009G14KT 210V310 10SM SCT023 BKN031 OVC040 13/10 A2992 RMK AO2 T01330100
Loading
Personal Weather Stations






























Interactive Weather Map
Tropical Storm Tracking
New forecast layout! Learn more

10-Day Weather Forecast

Advertisements
Track Severe Weather on mobile